createdAt,value
2023-01-01T00:00:09.851Z,1.10
2023-01-01T00:00:22.110Z,1.65
2023-01-01T00:00:33.970Z,1.60
2023-01-01T00:00:46.001Z,1.00
2023-01-01T00:00:57.904Z,0.88
2023-01-01T00:01:11.072Z,1.15
2023-01-01T00:01:23.025Z,1.27
2023-01-01T00:01:40.540Z,1.52
2023-01-01T00:01:52.652Z,1.70
2023-01-01T00:02:04.680Z,1.25
2023-01-01T00:02:16.702Z,1.13
2023-01-01T00:02:34.879Z,1.30
2023-01-01T00:02:48.473Z,1.33
2023-01-01T00:03:00.283Z,1.40
2023-01-01T00:03:12.044Z,1.50
2023-01-01T00:03:24.110Z,1.45
2023-01-01T00:03:36.118Z,1.13
2023-01-01T00:03:55.707Z,1.30
2023-01-01T00:04:09.898Z,1.45
2023-01-01T00:04:22.126Z,1.15
2023-01-01T00:04:34.634Z,0.95
2023-01-01T00:04:47.677Z,1.40
2023-01-01T00:04:59.800Z,1.20
2023-01-01T00:05:11.733Z,0.95
2023-01-01T00:05:23.631Z,0.95
2023-01-01T00:05:38.412Z,1.06
2023-01-01T00:05:50.308Z,1.02
2023-01-01T00:06:10.020Z,1.08
2023-01-01T00:06:22.590Z,1.40
2023-01-01T00:06:34.606Z,1.17
2023-01-01T00:06:46.511Z,1.20
2023-01-01T00:06:58.439Z,1.55
2023-01-01T00:07:10.263Z,1.60
2023-01-01T00:07:22.011Z,1.42
2023-01-01T00:07:33.993Z,1.38
2023-01-01T00:07:45.802Z,1.13
2023-01-01T00:08:04.337Z,1.10
2023-01-01T00:08:16.923Z,1.13
2023-01-01T00:08:28.748Z,1.73
2023-01-01T00:08:40.727Z,1.90
2023-01-01T00:09:11.407Z,1.80
2023-01-01T00:09:41.908Z,1.00
2023-01-01T00:10:12.109Z,2.03
2023-01-01T00:10:29.800Z,1.27
2023-01-01T00:10:41.688Z,1.25
2023-01-01T00:10:53.580Z,1.55
2023-01-01T00:11:07.068Z,1.25
2023-01-01T00:11:18.953Z,1.20
2023-01-01T00:11:30.746Z,1.63
2023-01-01T00:11:42.612Z,1.70
2023-01-01T00:11:54.574Z,1.60
2023-01-01T00:12:06.615Z,1.20
2023-01-01T00:12:18.483Z,1.48
2023-01-01T00:12:32.483Z,1.38
2023-01-01T00:12:44.340Z,1.25
2023-01-01T00:12:59.217Z,1.25
2023-01-01T00:13:14.134Z,1.35
2023-01-01T00:13:25.990Z,1.40
2023-01-01T00:13:40.508Z,1.20
2023-01-01T00:13:52.468Z,1.05
2023-01-01T00:14:11.775Z,1.10
2023-01-01T00:14:24.251Z,1.45
2023-01-01T00:14:36.215Z,1.52
2023-01-01T00:14:48.152Z,1.27
2023-01-01T00:15:00.025Z,1.30
2023-01-01T00:15:11.828Z,1.23
2023-01-01T00:15:24.384Z,1.55
2023-01-01T00:15:36.163Z,1.60
2023-01-01T00:15:47.942Z,1.35
2023-01-01T00:16:07.765Z,1.20
2023-01-01T00:16:20.535Z,1.27
2023-01-01T00:16:32.417Z,1.42
2023-01-01T00:16:44.296Z,1.60
2023-01-01T00:16:56.323Z,1.30
2023-01-01T00:17:08.420Z,1.02
2023-01-01T00:17:20.405Z,1.05
2023-01-01T00:17:32.439Z,1.50
2023-01-01T00:17:44.266Z,1.63
2023-01-01T00:17:56.614Z,1.70
2023-01-01T00:18:08.492Z,1.50
2023-01-01T00:18:20.363Z,1.60
2023-01-01T00:18:32.568Z,1.40
2023-01-01T00:18:44.428Z,1.33
2023-01-01T00:18:56.398Z,1.35
2023-01-01T00:19:08.400Z,1.67
2023-01-01T00:19:20.250Z,2.35
2023-01-01T00:19:32.135Z,2.38
2023-01-01T00:19:44.158Z,2.15
2023-01-01T00:19:56.091Z,1.65
2023-01-01T00:20:08.578Z,1.65
2023-01-01T00:20:20.440Z,1.70
2023-01-01T00:20:35.387Z,1.92
2023-01-01T00:20:47.356Z,1.95
2023-01-01T00:21:07.840Z,1.50
2023-01-01T00:21:19.726Z,1.30
2023-01-01T00:21:31.631Z,1.35
2023-01-01T00:21:43.611Z,1.10
2023-01-01T00:21:55.549Z,1.20
2023-01-01T00:22:35.359Z,1.40
2023-01-01T00:22:56.068Z,1.30
2023-01-01T00:23:08.529Z,1.00
2023-01-01T00:23:20.389Z,1.17
2023-01-01T00:23:32.364Z,1.20
2023-01-01T00:23:44.157Z,1.08
2023-01-01T00:23:56.131Z,1.10
2023-01-01T00:24:08.304Z,1.15
2023-01-01T00:24:20.291Z,1.17
2023-01-01T00:24:32.316Z,1.15
2023-01-01T00:24:44.329Z,1.38
2023-01-01T00:24:56.182Z,1.27
2023-01-01T00:25:08.295Z,1.00
2023-01-01T00:25:20.134Z,1.17
2023-01-01T00:25:32.651Z,1.10
2023-01-01T00:25:44.959Z,1.30
2023-01-01T00:25:57.091Z,1.27
2023-01-01T00:26:13.161Z,1.40
2023-01-01T00:26:29.562Z,1.15
2023-01-01T00:26:46.387Z,1.17
2023-01-01T00:26:58.515Z,1.52
2023-01-01T00:27:10.478Z,1.55
2023-01-01T00:27:22.338Z,1.35
2023-01-01T00:27:34.552Z,1.40
2023-01-01T00:27:46.363Z,1.45
2023-01-01T00:27:58.225Z,1.60
2023-01-01T00:28:10.112Z,1.40
2023-01-01T00:28:21.963Z,1.25
2023-01-01T00:28:33.775Z,1.10
2023-01-01T00:28:46.123Z,1.00
2023-01-01T00:28:58.011Z,1.08
2023-01-01T00:29:10.073Z,1.30
2023-01-01T00:29:22.062Z,1.30
2023-01-01T00:29:33.940Z,1.23
2023-01-01T00:29:45.827Z,1.52
2023-01-01T00:29:57.792Z,1.45
2023-01-01T00:30:10.919Z,1.40
2023-01-01T00:30:24.893Z,1.45
2023-01-01T00:30:40.400Z,1.52
2023-01-01T00:30:52.285Z,1.13
2023-01-01T00:31:14.598Z,0.98
2023-01-01T00:31:26.567Z,1.00
2023-01-01T00:31:38.559Z,1.08
2023-01-01T00:31:50.456Z,1.08
2023-01-01T00:32:02.493Z,1.35
2023-01-01T00:32:19.221Z,1.30
2023-01-01T00:32:34.417Z,1.20
2023-01-01T00:32:55.707Z,1.23
2023-01-01T00:33:08.050Z,1.10
2023-01-01T00:33:19.985Z,1.48
2023-01-01T00:33:31.921Z,1.50
2023-01-01T00:33:44.847Z,1.35
2023-01-01T00:33:56.875Z,1.25
2023-01-01T00:34:10.299Z,1.20
2023-01-01T00:34:22.193Z,0.95
2023-01-01T00:34:34.036Z,0.90
2023-01-01T00:34:45.886Z,1.17
2023-01-01T00:34:57.723Z,1.77
2023-01-01T00:35:09.922Z,2.20
2023-01-01T00:35:21.802Z,2.08
2023-01-01T00:35:33.947Z,1.40
2023-01-01T00:35:45.788Z,1.25
2023-01-01T00:35:57.591Z,1.38
2023-01-01T00:36:14.391Z,1.30
2023-01-01T00:36:27.224Z,1.02
2023-01-01T00:36:39.179Z,1.10
2023-01-01T00:36:51.021Z,1.30
2023-01-01T00:37:02.854Z,1.40
2023-01-01T00:37:15.457Z,1.30
2023-01-01T00:37:28.342Z,1.17
2023-01-01T00:37:46.390Z,1.20
2023-01-01T00:37:58.544Z,1.30
2023-01-01T00:38:10.435Z,1.00
2023-01-01T00:38:22.270Z,0.85
2023-01-01T00:38:34.639Z,1.10
2023-01-01T00:38:46.515Z,1.50
2023-01-01T00:38:58.434Z,2.33
2023-01-01T00:39:10.265Z,2.28
2023-01-01T00:39:22.045Z,1.52
2023-01-01T00:39:33.842Z,1.25
2023-01-01T00:39:45.669Z,1.52
2023-01-01T00:39:57.620Z,1.45
2023-01-01T00:40:11.967Z,1.33
2023-01-01T00:40:23.903Z,1.27
2023-01-01T00:40:35.920Z,1.23
2023-01-01T00:40:47.692Z,1.67
2023-01-01T00:40:59.466Z,1.65
2023-01-01T00:41:12.215Z,1.50
2023-01-01T00:41:24.218Z,1.67
2023-01-01T00:41:36.165Z,1.45
2023-01-01T00:41:48.008Z,1.27
2023-01-01T00:41:59.895Z,1.50
2023-01-01T00:42:11.780Z,1.75
2023-01-01T00:42:23.783Z,1.90
2023-01-01T00:42:35.639Z,1.94
2023-01-01T00:42:47.479Z,1.80
2023-01-01T00:42:59.399Z,2.03
2023-01-01T00:43:11.544Z,1.80
2023-01-01T00:43:23.530Z,2.10
2023-01-01T00:43:36.203Z,1.88
2023-01-01T00:43:48.184Z,1.92
2023-01-01T00:44:00.293Z,1.98
2023-01-01T00:44:12.127Z,1.92
2023-01-01T00:44:23.941Z,2.00
2023-01-01T00:44:35.897Z,2.63
2023-01-01T00:44:47.707Z,2.97
2023-01-01T00:44:59.652Z,2.47
2023-01-01T00:45:17.067Z,2.08
2023-01-01T00:45:32.860Z,2.00
2023-01-01T00:45:47.937Z,1.77
2023-01-01T00:45:59.918Z,2.03
2023-01-01T00:46:12.328Z,2.28
2023-01-01T00:46:24.241Z,2.30
2023-01-01T00:46:36.321Z,1.95
2023-01-01T00:46:48.104Z,2.45
2023-01-01T00:46:59.963Z,2.22
2023-01-01T00:47:11.820Z,1.90
2023-01-01T00:47:23.662Z,2.08
2023-01-01T00:47:35.474Z,2.10
2023-01-01T00:47:47.324Z,2.00
2023-01-01T00:47:59.138Z,2.00
2023-01-01T00:48:10.931Z,2.38
2023-01-01T00:48:23.045Z,2.63
2023-01-01T00:48:35.062Z,2.80
2023-01-01T00:48:47.040Z,2.40
2023-01-01T00:48:59.191Z,2.20
2023-01-01T00:49:11.058Z,2.35
2023-01-01T00:49:23.009Z,2.33
2023-01-01T00:49:34.868Z,2.35
2023-01-01T00:49:46.738Z,2.58
2023-01-01T00:49:58.690Z,3.33
2023-01-01T00:50:10.750Z,3.20
2023-01-01T00:50:22.951Z,3.28
2023-01-01T00:50:34.795Z,3.38
2023-01-01T00:50:47.854Z,3.22
2023-01-01T00:50:59.923Z,3.30
2023-01-01T00:51:11.946Z,3.15
2023-01-01T00:51:23.767Z,2.90
2023-01-01T00:51:37.331Z,2.90
2023-01-01T00:51:49.430Z,2.53
2023-01-01T00:52:01.257Z,2.40
2023-01-01T00:52:13.180Z,2.50
2023-01-01T00:52:25.044Z,2.53
2023-01-01T00:52:36.880Z,2.28
2023-01-01T00:52:49.370Z,2.40
2023-01-01T00:53:01.231Z,2.53
2023-01-01T00:53:13.185Z,2.55
2023-01-01T00:53:25.197Z,2.63
2023-01-01T00:53:37.209Z,2.72
2023-01-01T00:53:48.999Z,2.75
2023-01-01T00:54:00.914Z,2.60
2023-01-01T00:54:13.368Z,2.70
2023-01-01T00:54:25.877Z,2.58
2023-01-01T00:54:37.848Z,2.47
2023-01-01T00:54:49.748Z,2.08
2023-01-01T00:55:01.710Z,2.13
2023-01-01T00:55:13.515Z,1.85
2023-01-01T00:55:25.468Z,2.40
2023-01-01T00:55:40.317Z,2.38
2023-01-01T00:55:52.447Z,1.50
2023-01-01T00:56:05.099Z,1.23
2023-01-01T00:56:16.947Z,1.30
2023-01-01T00:56:28.833Z,1.25
2023-01-01T00:56:41.141Z,1.50
2023-01-01T00:56:53.083Z,1.90
2023-01-01T00:57:04.987Z,1.63
2023-01-01T00:57:17.119Z,1.40
2023-01-01T00:57:29.024Z,1.25
2023-01-01T00:57:41.079Z,1.45
2023-01-01T00:57:53.065Z,2.10
2023-01-01T00:58:05.130Z,1.85
2023-01-01T00:58:17.367Z,1.60
2023-01-01T00:58:29.373Z,2.47
2023-01-01T00:58:41.223Z,2.30
2023-01-01T00:59:01.131Z,2.22
2023-01-01T00:59:13.785Z,1.50
2023-01-01T00:59:28.961Z,1.50
2023-01-01T00:59:41.080Z,1.50
2023-01-01T00:59:52.896Z,1.30
2023-01-01T01:00:05.835Z,1.50
2023-01-01T01:00:17.921Z,1.40
2023-01-01T01:00:29.668Z,1.40
2023-01-01T01:00:41.856Z,1.10
2023-01-01T01:00:54.622Z,1.20
2023-01-01T01:01:06.651Z,1.70
2023-01-01T01:01:18.744Z,1.80
2023-01-01T01:01:31.033Z,1.65
2023-01-01T01:01:42.906Z,1.30
2023-01-01T01:01:54.925Z,1.33
2023-01-01T01:02:06.984Z,1.45
2023-01-01T01:02:19.078Z,1.25
2023-01-01T01:02:31.270Z,1.27
2023-01-01T01:02:43.330Z,1.10
2023-01-01T01:02:55.247Z,1.10
2023-01-01T01:03:07.438Z,1.08
2023-01-01T01:03:28.667Z,1.17
2023-01-01T01:03:40.635Z,1.05
2023-01-01T01:03:52.625Z,1.25
2023-01-01T01:04:04.921Z,1.08
2023-01-01T01:04:16.719Z,1.23
2023-01-01T01:04:28.579Z,1.63
2023-01-01T01:04:40.382Z,1.65
2023-01-01T01:04:52.198Z,1.48
2023-01-01T01:05:04.805Z,1.25
2023-01-01T01:05:16.924Z,1.27
2023-01-01T01:05:28.825Z,1.15
2023-01-01T01:05:40.684Z,1.38
2023-01-01T01:05:52.670Z,1.20
2023-01-01T01:06:04.606Z,1.15
2023-01-01T01:06:17.295Z,1.30
2023-01-01T01:06:29.375Z,1.25
2023-01-01T01:06:41.188Z,0.90
2023-01-01T01:06:53.174Z,1.00
2023-01-01T01:07:05.178Z,1.13
2023-01-01T01:07:17.211Z,1.23
2023-01-01T01:07:34.097Z,1.17
2023-01-01T01:07:46.007Z,1.00
2023-01-01T01:07:58.591Z,1.00
2023-01-01T01:08:10.424Z,1.10
2023-01-01T01:08:27.079Z,1.17
2023-01-01T01:08:45.017Z,1.45
2023-01-01T01:08:56.819Z,1.90
2023-01-01T01:09:08.808Z,2.20
2023-01-01T01:09:20.669Z,1.77
2023-01-01T01:09:32.772Z,1.65
2023-01-01T01:09:44.611Z,1.30
2023-01-01T01:09:56.449Z,1.30
2023-01-01T01:10:09.840Z,1.52
2023-01-01T01:10:22.332Z,1.60
2023-01-01T01:10:34.173Z,1.70
2023-01-01T01:10:46.017Z,1.48
2023-01-01T01:11:16.393Z,1.25
2023-01-01T01:11:28.159Z,1.45
2023-01-01T01:11:40.062Z,1.35
2023-01-01T01:11:51.875Z,1.40
2023-01-01T01:12:23.582Z,1.10
2023-01-01T01:12:36.107Z,1.00
2023-01-01T01:12:48.212Z,1.48
2023-01-01T01:13:00.125Z,1.70
2023-01-01T01:13:12.053Z,1.40
2023-01-01T01:13:24.415Z,1.40
2023-01-01T01:13:36.273Z,1.38
2023-01-01T01:13:50.612Z,1.60
2023-01-01T01:14:02.561Z,1.95
2023-01-01T01:14:14.960Z,1.80
2023-01-01T01:14:26.962Z,1.67
2023-01-01T01:14:38.795Z,1.55
2023-01-01T01:14:50.638Z,1.80
2023-01-01T01:15:03.833Z,2.30
2023-01-01T01:15:15.634Z,2.03
2023-01-01T01:15:27.429Z,1.88
2023-01-01T01:15:39.403Z,1.60
2023-01-01T01:15:56.200Z,1.60
2023-01-01T01:16:21.102Z,1.33
2023-01-01T01:16:33.761Z,1.30
2023-01-01T01:16:45.641Z,1.40
2023-01-01T01:16:57.680Z,1.20
2023-01-01T01:17:09.703Z,1.48
2023-01-01T01:17:21.504Z,1.63
2023-01-01T01:17:33.742Z,1.95
2023-01-01T01:17:45.847Z,1.88
2023-01-01T01:17:57.709Z,1.75
2023-01-01T01:18:09.861Z,1.60
2023-01-01T01:18:21.839Z,1.48
2023-01-01T01:18:33.759Z,2.00
2023-01-01T01:18:45.699Z,2.15
2023-01-01T01:19:00.452Z,1.90
2023-01-01T01:19:16.017Z,1.67
2023-01-01T01:19:28.034Z,1.55
2023-01-01T01:19:39.872Z,1.98
2023-01-01T01:19:51.644Z,1.88
2023-01-01T01:20:04.070Z,2.00
2023-01-01T01:20:17.255Z,2.17
2023-01-01T01:20:29.102Z,2.20
2023-01-01T01:20:41.053Z,1.92
2023-01-01T01:20:53.560Z,1.80
2023-01-01T01:21:05.891Z,1.95
2023-01-01T01:21:19.099Z,1.92
2023-01-01T01:21:32.570Z,1.95
2023-01-01T01:21:44.651Z,1.75
2023-01-01T01:21:56.446Z,1.90
2023-01-01T01:22:08.396Z,1.90
2023-01-01T01:22:24.323Z,2.05
2023-01-01T01:22:40.216Z,1.80
2023-01-01T01:22:52.141Z,1.63
2023-01-01T01:23:04.464Z,1.80
2023-01-01T01:23:16.301Z,1.75
2023-01-01T01:23:28.148Z,1.83
2023-01-01T01:23:40.038Z,1.95
2023-01-01T01:23:52.291Z,1.60
2023-01-01T01:24:04.522Z,1.27
2023-01-01T01:24:16.384Z,1.20
2023-01-01T01:24:28.487Z,1.40
2023-01-01T01:24:40.441Z,1.63
2023-01-01T01:24:52.407Z,1.95
2023-01-01T01:25:04.893Z,2.10
2023-01-01T01:25:16.708Z,1.75
2023-01-01T01:25:28.561Z,1.33
2023-01-01T01:25:40.317Z,1.58
2023-01-01T01:25:52.225Z,1.58
2023-01-01T01:26:20.152Z,1.58
2023-01-01T01:26:33.309Z,1.77
2023-01-01T01:26:45.141Z,1.48
2023-01-01T01:26:56.964Z,1.23
2023-01-01T01:27:08.961Z,1.10
2023-01-01T01:27:20.914Z,1.00
2023-01-01T01:27:32.854Z,1.10
2023-01-01T01:27:44.786Z,1.15
2023-01-01T01:27:56.924Z,1.10
2023-01-01T01:28:09.027Z,0.90
2023-01-01T01:28:20.865Z,0.93
2023-01-01T01:28:32.624Z,1.15
2023-01-01T01:28:49.382Z,1.50
2023-01-01T01:29:01.724Z,1.45
2023-01-01T01:29:13.496Z,1.42
2023-01-01T01:29:25.355Z,1.73
2023-01-01T01:29:37.188Z,1.60
2023-01-01T01:29:49.122Z,1.63
2023-01-01T01:30:00.865Z,1.60
2023-01-01T01:30:13.026Z,1.42
2023-01-01T01:30:24.966Z,1.75
2023-01-01T01:30:40.204Z,1.80
2023-01-01T01:30:52.129Z,1.40
2023-01-01T01:31:04.369Z,1.38
2023-01-01T01:31:16.963Z,2.10
2023-01-01T01:31:30.959Z,1.95
2023-01-01T01:31:42.815Z,1.98
2023-01-01T01:31:54.938Z,2.25
2023-01-01T01:32:06.739Z,1.83
2023-01-01T01:32:18.572Z,1.30
2023-01-01T01:32:30.538Z,1.30
2023-01-01T01:32:42.378Z,1.84
2023-01-01T01:32:54.255Z,1.75
2023-01-01T01:33:06.111Z,1.67
2023-01-01T01:33:18.052Z,1.40
2023-01-01T01:33:30.039Z,1.50
2023-01-01T01:33:43.838Z,1.38
2023-01-01T01:33:55.985Z,1.60
2023-01-01T01:34:10.900Z,1.88
2023-01-01T01:34:28.307Z,1.77
2023-01-01T01:34:40.375Z,1.58
2023-01-01T01:34:52.455Z,1.55
2023-01-01T01:35:04.906Z,1.90
2023-01-01T01:35:16.820Z,1.88
2023-01-01T01:35:29.849Z,1.48
2023-01-01T01:35:41.773Z,1.50
2023-01-01T01:35:53.733Z,1.65
2023-01-01T01:36:06.560Z,1.90
2023-01-01T01:36:19.070Z,1.83
2023-01-01T01:36:31.030Z,1.90
2023-01-01T01:36:42.844Z,1.50
2023-01-01T01:36:54.812Z,1.40
2023-01-01T01:37:06.752Z,1.00
2023-01-01T01:37:18.529Z,0.98
2023-01-01T01:37:30.308Z,1.20
2023-01-01T01:37:42.156Z,1.50
2023-01-01T01:37:53.959Z,1.38
2023-01-01T01:38:06.418Z,1.25
2023-01-01T01:38:18.302Z,1.00
2023-01-01T01:38:30.251Z,1.30
2023-01-01T01:38:42.513Z,1.20
2023-01-01T01:38:54.758Z,1.25
2023-01-01T01:39:06.702Z,1.00
2023-01-01T01:39:18.923Z,0.90
2023-01-01T01:39:30.873Z,1.02
2023-01-01T01:39:42.707Z,1.60
2023-01-01T01:39:54.538Z,1.83
2023-01-01T01:40:07.903Z,1.60
2023-01-01T01:40:19.838Z,1.30
2023-01-01T01:40:31.785Z,1.13
2023-01-01T01:40:44.271Z,1.25
2023-01-01T01:40:56.148Z,1.30
2023-01-01T01:41:08.325Z,1.33
2023-01-01T01:41:29.778Z,1.65
2023-01-01T01:41:41.603Z,1.52
2023-01-01T01:41:53.486Z,1.40
2023-01-01T01:42:05.425Z,1.65
2023-01-01T01:42:17.995Z,1.55
2023-01-01T01:42:29.875Z,1.75
2023-01-01T01:42:41.698Z,1.90
2023-01-01T01:42:53.537Z,1.35
2023-01-01T01:43:10.129Z,1.50
2023-01-01T01:43:30.823Z,1.63
2023-01-01T01:43:43.018Z,1.60
2023-01-01T01:44:26.996Z,1.48
2023-01-01T01:44:56.318Z,1.90
2023-01-01T01:45:10.756Z,1.98
2023-01-01T01:45:25.868Z,1.35
2023-01-01T01:45:42.064Z,1.65
2023-01-01T01:46:00.460Z,2.13
2023-01-01T01:46:29.557Z,2.10
2023-01-01T01:46:43.075Z,1.30
2023-01-01T01:47:02.669Z,1.27
2023-01-01T01:47:26.291Z,1.67
2023-01-01T01:47:58.202Z,1.55
2023-01-01T01:48:11.241Z,1.08
2023-01-01T01:48:23.592Z,1.35
2023-01-01T01:48:42.884Z,1.27
2023-01-01T01:48:55.644Z,1.38
2023-01-01T01:49:28.317Z,1.35
2023-01-01T01:49:40.071Z,1.98
2023-01-01T01:50:22.728Z,1.77
2023-01-01T01:50:39.666Z,1.90
2023-01-01T01:50:52.630Z,1.67
2023-01-01T01:51:05.081Z,1.45
2023-01-01T01:51:23.067Z,1.45
2023-01-01T01:51:38.717Z,1.90
2023-01-01T01:51:50.655Z,1.33
2023-01-01T01:52:02.595Z,1.10
2023-01-01T01:52:14.527Z,1.40
2023-01-01T01:52:27.476Z,1.25
2023-01-01T01:52:42.597Z,1.27
2023-01-01T01:53:24.591Z,1.45
2023-01-01T01:53:39.676Z,1.83
2023-01-01T01:53:55.168Z,2.05
2023-01-01T01:54:15.179Z,2.28
2023-01-01T01:54:27.124Z,1.65
2023-01-01T01:54:39.095Z,1.40
2023-01-01T01:54:50.964Z,1.33
2023-01-01T01:55:03.921Z,1.42
2023-01-01T01:55:15.696Z,1.48
2023-01-01T01:55:29.851Z,1.77
2023-01-01T01:55:57.289Z,1.83
2023-01-01T01:56:12.757Z,1.63
2023-01-01T01:57:00.086Z,1.80
2023-01-01T01:57:12.150Z,1.75
2023-01-01T01:57:23.929Z,1.17
2023-01-01T01:57:37.215Z,0.98
2023-01-01T01:57:49.339Z,1.20
2023-01-01T01:58:01.870Z,1.67
2023-01-01T01:58:14.390Z,1.65
2023-01-01T01:58:27.712Z,1.38
2023-01-01T01:58:39.528Z,1.13
2023-01-01T01:58:51.326Z,1.40
2023-01-01T01:59:03.184Z,1.52
2023-01-01T01:59:15.081Z,1.52
2023-01-01T01:59:30.031Z,1.38
2023-01-01T01:59:44.240Z,1.65
2023-01-01T01:59:56.381Z,1.95
2023-01-01T02:00:11.558Z,1.80
2023-01-01T02:00:23.988Z,1.25
2023-01-01T02:00:35.782Z,1.70
2023-01-01T02:00:47.829Z,1.52
2023-01-01T02:01:00.453Z,1.30
2023-01-01T02:01:12.562Z,1.52
2023-01-01T02:01:24.750Z,1.45
2023-01-01T02:01:37.106Z,1.35
2023-01-01T02:01:49.091Z,1.20
2023-01-01T02:02:01.244Z,1.58
2023-01-01T02:02:40.864Z,1.75
2023-01-01T02:02:58.818Z,1.73
2023-01-01T02:03:36.110Z,1.27
2023-01-01T02:03:59.140Z,1.13
2023-01-01T02:04:11.063Z,1.42
2023-01-01T02:04:22.943Z,1.67
2023-01-01T02:04:34.726Z,2.17
2023-01-01T02:04:46.561Z,1.83
2023-01-01T02:04:58.506Z,1.63
2023-01-01T02:05:10.367Z,1.20
2023-01-01T02:05:22.322Z,1.20
2023-01-01T02:05:34.622Z,1.33
2023-01-01T02:05:46.475Z,1.42
2023-01-01T02:05:58.642Z,1.40
2023-01-01T02:06:11.096Z,1.50
2023-01-01T02:06:23.040Z,2.25
2023-01-01T02:06:36.672Z,2.13
2023-01-01T02:06:48.595Z,1.55
2023-01-01T02:07:00.625Z,1.55
2023-01-01T02:07:13.716Z,1.90
2023-01-01T02:07:26.396Z,1.90
2023-01-01T02:07:38.217Z,1.50
2023-01-01T02:07:50.953Z,1.52
2023-01-01T02:08:04.265Z,1.70
2023-01-01T02:08:16.701Z,1.85
2023-01-01T02:08:28.552Z,1.83
2023-01-01T02:08:40.414Z,1.40
2023-01-01T02:08:52.278Z,1.10
2023-01-01T02:09:05.524Z,1.15
2023-01-01T02:09:17.389Z,1.70
2023-01-01T02:09:29.434Z,1.60
2023-01-01T02:09:41.251Z,1.30
2023-01-01T02:09:53.078Z,0.98
2023-01-01T02:10:05.498Z,1.27
2023-01-01T02:10:17.419Z,1.23
2023-01-01T02:10:29.249Z,1.00
2023-01-01T02:10:41.173Z,2.10
2023-01-01T02:10:52.986Z,2.22
2023-01-01T02:11:05.005Z,2.22
2023-01-01T02:11:21.808Z,1.90
2023-01-01T02:11:34.155Z,2.00
2023-01-01T02:11:45.934Z,1.50
2023-01-01T02:11:58.765Z,1.30
2023-01-01T02:12:11.936Z,1.30
2023-01-01T02:12:24.570Z,1.30
2023-01-01T02:12:36.400Z,1.35
2023-01-01T02:12:48.241Z,1.42
2023-01-01T02:13:00.166Z,1.40
2023-01-01T02:13:12.128Z,1.80
2023-01-01T02:13:24.076Z,1.90
2023-01-01T02:13:35.896Z,2.47
2023-01-01T02:13:47.862Z,2.20
2023-01-01T02:14:00.667Z,1.75
2023-01-01T02:14:12.480Z,1.58
2023-01-01T02:14:24.295Z,1.70
2023-01-01T02:14:36.234Z,0.98
2023-01-01T02:14:48.045Z,1.20
2023-01-01T02:14:59.830Z,2.08
2023-01-01T02:15:11.986Z,2.53
2023-01-01T02:15:27.459Z,2.03
2023-01-01T02:15:58.290Z,1.48
2023-01-01T02:16:53.959Z,1.70
2023-01-01T02:17:12.346Z,1.60
2023-01-01T02:18:18.565Z,1.05
2023-01-01T02:19:11.884Z,1.35
2023-01-01T02:19:55.413Z,1.33
2023-01-01T02:20:21.774Z,1.92
2023-01-01T02:20:58.780Z,1.42
2023-01-01T02:21:19.693Z,1.50
2023-01-01T02:21:51.344Z,1.48
2023-01-01T02:22:24.592Z,1.55
2023-01-01T02:23:16.541Z,1.42
2023-01-01T02:23:55.481Z,1.60
2023-01-01T02:24:38.973Z,2.03
2023-01-01T02:25:36.673Z,1.75
2023-01-01T02:26:20.653Z,1.10
2023-01-01T02:26:56.947Z,1.40
2023-01-01T02:27:46.864Z,1.42
2023-01-01T02:28:24.248Z,1.77
2023-01-01T02:29:03.127Z,1.35
2023-01-01T02:29:38.731Z,2.30
2023-01-01T02:30:07.537Z,1.83
2023-01-01T02:30:19.581Z,1.90
2023-01-01T02:30:31.347Z,2.10
2023-01-01T02:30:44.308Z,1.88
2023-01-01T02:30:56.269Z,1.25
2023-01-01T02:31:08.460Z,1.30
2023-01-01T02:31:26.591Z,1.27
2023-01-01T02:31:44.383Z,1.13
2023-01-01T02:31:58.399Z,1.15
2023-01-01T02:32:28.197Z,0.95
2023-01-01T02:32:50.120Z,1.08
2023-01-01T02:33:05.650Z,1.40
2023-01-01T02:33:21.891Z,1.50
2023-01-01T02:33:33.874Z,1.17
2023-01-01T02:33:45.684Z,1.30
2023-01-01T02:34:01.142Z,1.13
2023-01-01T02:34:15.146Z,1.10
2023-01-01T02:34:30.991Z,1.23
2023-01-01T02:34:48.752Z,1.38
2023-01-01T02:35:25.085Z,1.30
2023-01-01T02:35:42.486Z,1.45
2023-01-01T02:35:59.832Z,1.83
2023-01-01T02:36:11.713Z,2.05
2023-01-01T02:36:23.764Z,1.63
2023-01-01T02:36:37.678Z,1.10
2023-01-01T02:36:51.887Z,1.33
2023-01-01T02:37:05.774Z,1.40
2023-01-01T02:37:18.475Z,1.30
2023-01-01T02:37:30.284Z,1.13
2023-01-01T02:37:42.122Z,1.38
2023-01-01T02:37:58.096Z,1.20
2023-01-01T02:38:29.927Z,1.10
2023-01-01T02:38:51.254Z,1.30
2023-01-01T02:39:03.355Z,1.40
2023-01-01T02:39:15.166Z,1.38
2023-01-01T02:39:29.378Z,1.05
2023-01-01T02:39:47.394Z,1.40
2023-01-01T02:39:59.235Z,1.58
2023-01-01T02:40:11.342Z,1.45
2023-01-01T02:40:23.834Z,1.80
2023-01-01T02:40:39.692Z,1.77
2023-01-01T02:41:04.237Z,1.30
2023-01-01T02:41:33.997Z,1.05
2023-01-01T02:41:47.201Z,1.48
2023-01-01T02:41:59.065Z,1.25
2023-01-01T02:42:10.840Z,1.42
2023-01-01T02:42:25.696Z,1.25
2023-01-01T02:42:37.490Z,1.17
2023-01-01T02:42:49.762Z,1.52
2023-01-01T02:43:01.768Z,1.48
2023-01-01T02:43:13.617Z,1.40
2023-01-01T02:43:25.445Z,1.40
2023-01-01T02:43:38.490Z,1.35
2023-01-01T02:44:17.911Z,1.30
2023-01-01T02:44:31.041Z,1.27
2023-01-01T02:44:45.149Z,1.40
2023-01-01T02:44:57.928Z,1.38
2023-01-01T02:45:10.348Z,1.18
2023-01-01T02:45:22.582Z,1.33
2023-01-01T02:45:35.035Z,1.30
2023-01-01T02:45:46.938Z,1.30
2023-01-01T02:45:59.024Z,1.05
2023-01-01T02:46:12.342Z,1.10
2023-01-01T02:46:35.694Z,1.00
2023-01-01T02:46:47.681Z,1.42
2023-01-01T02:47:10.770Z,1.60
2023-01-01T02:47:22.750Z,1.17
2023-01-01T02:47:34.556Z,1.38
2023-01-01T02:47:46.398Z,1.42
2023-01-01T02:47:58.224Z,1.42
2023-01-01T02:48:48.921Z,1.55
2023-01-01T02:49:06.250Z,1.20
2023-01-01T02:49:21.576Z,0.90
2023-01-01T02:49:33.538Z,1.00
2023-01-01T02:49:56.378Z,1.33
2023-01-01T02:50:11.812Z,1.10
2023-01-01T02:50:26.346Z,1.38
2023-01-01T02:50:38.307Z,1.75
2023-01-01T02:50:50.120Z,1.42
2023-01-01T02:51:04.869Z,1.02
2023-01-01T02:51:40.109Z,0.80
2023-01-01T02:51:51.805Z,1.30
2023-01-01T02:52:09.934Z,1.33
2023-01-01T02:52:54.437Z,1.73
2023-01-01T02:53:34.262Z,1.40
2023-01-01T02:53:59.352Z,1.20
2023-01-01T02:54:18.342Z,1.77
2023-01-01T02:55:08.445Z,1.75
2023-01-01T02:55:37.281Z,1.67
2023-01-01T02:55:58.975Z,1.27
2023-01-01T02:56:45.657Z,1.13
2023-01-01T02:57:15.857Z,1.67
2023-01-01T02:57:36.821Z,1.70
2023-01-01T02:58:25.975Z,1.27
2023-01-01T02:59:15.795Z,1.88
2023-01-01T03:00:07.657Z,1.20
2023-01-01T03:00:19.889Z,1.02
2023-01-01T03:00:33.538Z,1.10
2023-01-01T03:00:47.558Z,1.50
2023-01-01T03:01:13.064Z,1.27
2023-01-01T03:01:41.589Z,1.92
2023-01-01T03:02:00.498Z,1.50
2023-01-01T03:02:31.314Z,1.52
2023-01-01T03:03:07.024Z,1.08
2023-01-01T03:03:29.986Z,1.20
2023-01-01T03:03:48.900Z,1.38
2023-01-01T03:04:25.755Z,1.17
2023-01-01T03:05:15.486Z,1.70
2023-01-01T03:05:31.633Z,1.90
2023-01-01T03:06:23.990Z,1.20
2023-01-01T03:06:50.144Z,1.92
2023-01-01T03:07:24.530Z,1.55
2023-01-01T03:08:00.125Z,1.90
2023-01-01T03:08:17.613Z,1.50
2023-01-01T03:09:03.926Z,1.40
2023-01-01T03:09:33.486Z,1.55
2023-01-01T03:09:49.682Z,1.65
2023-01-01T03:10:28.762Z,1.15
2023-01-01T03:10:59.659Z,1.23
2023-01-01T03:11:14.643Z,1.20
2023-01-01T03:11:57.388Z,1.02
2023-01-01T03:12:21.994Z,1.35
2023-01-01T03:13:06.124Z,1.38
2023-01-01T03:13:26.809Z,1.33
2023-01-01T03:14:01.225Z,1.48
2023-01-01T03:14:42.362Z,1.35
2023-01-01T03:15:03.112Z,1.27
2023-01-01T03:15:28.140Z,1.38
2023-01-01T03:15:51.950Z,1.30
2023-01-01T03:16:17.549Z,1.42
2023-01-01T03:16:41.281Z,1.63
2023-01-01T03:17:20.126Z,1.35
2023-01-01T03:17:39.141Z,2.20
2023-01-01T03:18:07.426Z,2.65
2023-01-01T03:18:43.626Z,2.13
2023-01-01T03:19:20.331Z,1.48
2023-01-01T03:19:37.937Z,2.10
2023-01-01T03:19:49.926Z,1.25
2023-01-01T03:20:05.002Z,1.58
2023-01-01T03:20:21.491Z,1.65
2023-01-01T03:20:34.454Z,1.10
2023-01-01T03:20:48.771Z,1.50
2023-01-01T03:21:01.140Z,2.15
2023-01-01T03:21:24.493Z,2.13
2023-01-01T03:22:02.261Z,2.05
2023-01-01T03:22:15.995Z,1.45
2023-01-01T03:22:31.983Z,1.58
2023-01-01T03:22:55.655Z,1.00
2023-01-01T03:23:11.308Z,1.63
2023-01-01T03:23:27.945Z,1.80
2023-01-01T03:23:49.316Z,1.40
2023-01-01T03:24:01.957Z,1.42
2023-01-01T03:24:23.271Z,1.85
2023-01-01T03:24:54.287Z,2.10
2023-01-01T03:25:19.983Z,1.35
2023-01-01T03:25:35.034Z,1.77
2023-01-01T03:25:50.143Z,1.75
2023-01-01T03:26:05.900Z,2.03
2023-01-01T03:26:17.672Z,2.10
2023-01-01T03:26:31.927Z,1.48
2023-01-01T03:26:43.673Z,1.40
2023-01-01T03:26:59.699Z,1.85
2023-01-01T03:27:17.016Z,2.20
2023-01-01T03:27:32.099Z,1.75
2023-01-01T03:27:59.891Z,1.60
2023-01-01T03:28:24.265Z,1.55
2023-01-01T03:28:40.123Z,1.60
2023-01-01T03:28:57.493Z,1.50
2023-01-01T03:29:10.235Z,1.17
2023-01-01T03:29:23.528Z,1.10
2023-01-01T03:29:37.504Z,1.60